EWG69N EDDK-LIMC
Flight info
| Callsign | EWG69N |
|---|---|
| Flight time | 1h 9m |
| Altitude | 33000 |
| Route | KUMIK Y854 BOMBI DCT GIGET DCT ABUKA DCT KRH DCT NATOR/N0428F330 DCT DITON DCT BASGO Z424 RIXUV |
| Aircraft | A320/M-SDE2E3FGIJ1RWXY/L |
Departure
| Time | 2026-05-04 17:33 |
|---|---|
| Airport | Cologne Bonn Airport (EDDK) |
Arrival
| Time | 2026-05-04 18:42 |
|---|---|
| Airport | Milan Malpensa International Airport (LIMC) |
| Time | Latitude | Longitude | Altitude | Speed | Heading |
|---|---|---|---|---|---|
| 2026-05-04 17:08 | 50.87985 | 7.12375 | 232 ft | 0 kts | 216° |
| 2026-05-04 17:17 | 50.88040 | 7.12428 | 232 ft | 4 kts | 172° |
| 2026-05-04 17:18 | 50.88060 | 7.12410 | 232 ft | 4 kts | 124° |
| 2026-05-04 17:18 | 50.88068 | 7.12390 | 232 ft | 0 kts | 120° |
| 2026-05-04 17:23 | 50.88054 | 7.12417 | 232 ft | 6 kts | 134° |
| 2026-05-04 17:23 | 50.88018 | 7.12470 | 235 ft | 7 kts | 137° |
| 2026-05-04 17:23 | 50.87944 | 7.12577 | 234 ft | 7 kts | 137° |
| 2026-05-04 17:24 | 50.87897 | 7.12612 | 232 ft | 9 kts | 179° |
| 2026-05-04 17:24 | 50.87717 | 7.12773 | 233 ft | 12 kts | 137° |
| 2026-05-04 17:25 | 50.87650 | 7.12871 | 234 ft | 14 kts | 137° |
| 2026-05-04 17:25 | 50.87500 | 7.13087 | 234 ft | 15 kts | 137° |
| 2026-05-04 17:26 | 50.87346 | 7.13311 | 232 ft | 16 kts | 137° |
| 2026-05-04 17:26 | 50.87106 | 7.13658 | 240 ft | 15 kts | 137° |
| 2026-05-04 17:27 | 50.86942 | 7.13896 | 248 ft | 14 kts | 137° |
| 2026-05-04 17:27 | 50.86821 | 7.14070 | 255 ft | 14 kts | 137° |
| 2026-05-04 17:28 | 50.86693 | 7.14195 | 259 ft | 8 kts | 137° |
| 2026-05-04 17:29 | 50.86440 | 7.14563 | 270 ft | 17 kts | 137° |
| 2026-05-04 17:29 | 50.86205 | 7.14903 | 283 ft | 17 kts | 137° |
| 2026-05-04 17:30 | 50.86051 | 7.15266 | 294 ft | 15 kts | 68° |
| 2026-05-04 17:31 | 50.86255 | 7.15324 | 288 ft | 15 kts | 348° |
| 2026-05-04 17:31 | 50.86622 | 7.14974 | 274 ft | 57 kts | 317° |
| 2026-05-04 17:32 | 50.87839 | 7.13219 | 318 ft | 163 kts | 317° |
| 2026-05-04 17:33 | 50.90832 | 7.11483 | 2022 ft | 190 kts | 26° |
| 2026-05-04 17:33 | 50.92072 | 7.12525 | 2329 ft | 213 kts | 27° |
| 2026-05-04 17:34 | 50.95025 | 7.18622 | 3888 ft | 268 kts | 64° |
| 2026-05-04 17:34 | 50.95864 | 7.21332 | 4694 ft | 277 kts | 65° |
| 2026-05-04 17:35 | 50.98507 | 7.29777 | 7253 ft | 293 kts | 66° |
| 2026-05-04 17:35 | 51.00344 | 7.35593 | 8998 ft | 299 kts | 66° |
| 2026-05-04 17:35 | 51.01170 | 7.38648 | 9864 ft | 301 kts | 76° |
| 2026-05-04 17:36 | 51.01544 | 7.41905 | 10622 ft | 300 kts | 90° |
| 2026-05-04 17:36 | 51.01439 | 7.45300 | 10970 ft | 318 kts | 104° |
| 2026-05-04 17:36 | 51.00818 | 7.48755 | 11337 ft | 331 kts | 111° |
| 2026-05-04 17:36 | 51.00112 | 7.52274 | 11995 ft | 337 kts | 110° |
| 2026-05-04 17:37 | 50.99419 | 7.55803 | 12719 ft | 341 kts | 110° |
| 2026-05-04 17:37 | 50.98706 | 7.59427 | 13462 ft | 345 kts | 110° |
| 2026-05-04 17:37 | 50.97987 | 7.63085 | 14191 ft | 347 kts | 110° |
| 2026-05-04 17:37 | 50.97267 | 7.66771 | 14855 ft | 352 kts | 110° |
| 2026-05-04 17:38 | 50.96533 | 7.70518 | 15492 ft | 356 kts | 110° |
| 2026-05-04 17:38 | 50.95801 | 7.74233 | 16105 ft | 359 kts | 111° |
| 2026-05-04 17:38 | 50.95049 | 7.78030 | 16721 ft | 363 kts | 110° |
| 2026-05-04 17:38 | 50.94159 | 7.81851 | 17328 ft | 365 kts | 119° |
| 2026-05-04 17:39 | 50.91028 | 7.88067 | 18462 ft | 365 kts | 144° |
| 2026-05-04 17:39 | 50.89049 | 7.90529 | 18973 ft | 368 kts | 145° |
| 2026-05-04 17:39 | 50.87015 | 7.93024 | 19492 ft | 372 kts | 146° |
| 2026-05-04 17:40 | 50.84952 | 7.95533 | 20010 ft | 375 kts | 146° |
| 2026-05-04 17:40 | 50.82871 | 7.98056 | 20496 ft | 379 kts | 146° |
| 2026-05-04 17:40 | 50.80769 | 8.00604 | 20967 ft | 382 kts | 146° |
| 2026-05-04 17:40 | 50.78647 | 8.03186 | 21438 ft | 387 kts | 146° |
| 2026-05-04 17:41 | 50.76510 | 8.05812 | 21931 ft | 390 kts | 146° |
| 2026-05-04 17:41 | 50.74364 | 8.08470 | 22423 ft | 394 kts | 145° |
| 2026-05-04 17:41 | 50.72204 | 8.11153 | 22916 ft | 397 kts | 145° |
| 2026-05-04 17:41 | 50.70023 | 8.13860 | 23385 ft | 400 kts | 146° |
| 2026-05-04 17:42 | 50.67822 | 8.16585 | 23793 ft | 402 kts | 146° |
| 2026-05-04 17:42 | 50.65605 | 8.19317 | 24163 ft | 406 kts | 146° |
| 2026-05-04 17:42 | 50.63363 | 8.22061 | 24566 ft | 408 kts | 146° |
| 2026-05-04 17:42 | 50.61137 | 8.24782 | 24961 ft | 410 kts | 146° |
| 2026-05-04 17:43 | 50.58878 | 8.27560 | 25368 ft | 413 kts | 147° |
| 2026-05-04 17:43 | 50.56602 | 8.30343 | 25818 ft | 416 kts | 146° |
| 2026-05-04 17:43 | 50.54311 | 8.33146 | 26272 ft | 415 kts | 147° |
| 2026-05-04 17:43 | 50.52030 | 8.35930 | 26670 ft | 416 kts | 147° |
| 2026-05-04 17:44 | 50.49735 | 8.38723 | 27009 ft | 419 kts | 147° |
| 2026-05-04 17:44 | 50.47419 | 8.41537 | 27374 ft | 421 kts | 147° |
| 2026-05-04 17:44 | 50.45125 | 8.44324 | 27742 ft | 423 kts | 147° |
| 2026-05-04 17:44 | 50.42794 | 8.47154 | 28106 ft | 424 kts | 147° |
| 2026-05-04 17:45 | 50.40300 | 8.49579 | 28444 ft | 419 kts | 160° |
| 2026-05-04 17:45 | 50.37586 | 8.51156 | 28800 ft | 415 kts | 169° |
| 2026-05-04 17:45 | 50.34764 | 8.52069 | 29154 ft | 413 kts | 175° |
| 2026-05-04 17:45 | 50.31901 | 8.52641 | 29514 ft | 414 kts | 177° |
| 2026-05-04 17:46 | 50.29036 | 8.53169 | 29915 ft | 415 kts | 176° |
| 2026-05-04 17:46 | 50.26156 | 8.53825 | 30249 ft | 417 kts | 174° |
| 2026-05-04 17:46 | 50.23286 | 8.54640 | 30533 ft | 420 kts | 173° |
| 2026-05-04 17:46 | 50.20456 | 8.55576 | 30803 ft | 422 kts | 171° |
| 2026-05-04 17:47 | 50.17591 | 8.56605 | 31061 ft | 424 kts | 171° |
| 2026-05-04 17:47 | 50.14706 | 8.57664 | 31310 ft | 426 kts | 171° |
| 2026-05-04 17:47 | 50.11821 | 8.58715 | 31644 ft | 425 kts | 171° |
| 2026-05-04 17:47 | 50.08921 | 8.59744 | 32014 ft | 424 kts | 172° |
| 2026-05-04 17:48 | 50.06051 | 8.60740 | 32423 ft | 421 kts | 172° |
| 2026-05-04 17:48 | 50.03192 | 8.61716 | 32804 ft | 420 kts | 172° |
| 2026-05-04 17:48 | 50.00366 | 8.62668 | 32954 ft | 418 kts | 172° |
| 2026-05-04 17:48 | 49.97558 | 8.63608 | 32976 ft | 407 kts | 172° |
| 2026-05-04 17:49 | 49.92049 | 8.65428 | 32986 ft | 401 kts | 172° |
| 2026-05-04 17:49 | 49.86587 | 8.67220 | 32977 ft | 400 kts | 172° |
| 2026-05-04 17:50 | 49.81155 | 8.69010 | 32984 ft | 401 kts | 172° |
| 2026-05-04 17:50 | 49.75719 | 8.70804 | 32987 ft | 401 kts | 172° |
| 2026-05-04 17:51 | 49.70245 | 8.72295 | 32982 ft | 396 kts | 181° |
| 2026-05-04 17:51 | 49.64803 | 8.71608 | 32976 ft | 391 kts | 191° |
| 2026-05-04 17:52 | 49.59392 | 8.70494 | 32959 ft | 392 kts | 191° |
| 2026-05-04 17:52 | 49.54016 | 8.69408 | 32954 ft | 392 kts | 190° |
| 2026-05-04 17:53 | 49.48607 | 8.68320 | 32950 ft | 392 kts | 190° |
| 2026-05-04 17:53 | 49.43186 | 8.67244 | 32952 ft | 393 kts | 190° |
| 2026-05-04 17:54 | 49.37759 | 8.66153 | 32945 ft | 394 kts | 190° |
| 2026-05-04 17:54 | 49.32341 | 8.65062 | 32957 ft | 392 kts | 190° |
| 2026-05-04 17:55 | 49.27849 | 8.64156 | 32954 ft | 391 kts | 190° |
| 2026-05-04 17:55 | 49.22442 | 8.63061 | 32956 ft | 392 kts | 190° |
| 2026-05-04 17:56 | 49.17010 | 8.61971 | 32960 ft | 392 kts | 190° |
| 2026-05-04 17:56 | 49.11625 | 8.60889 | 32967 ft | 392 kts | 190° |
| 2026-05-04 17:57 | 49.06220 | 8.59811 | 32974 ft | 392 kts | 190° |
| 2026-05-04 17:57 | 49.00793 | 8.58724 | 32979 ft | 392 kts | 190° |
| 2026-05-04 17:58 | 48.95421 | 8.57382 | 32989 ft | 390 kts | 194° |
| 2026-05-04 17:58 | 48.90145 | 8.55599 | 32991 ft | 388 kts | 195° |
| 2026-05-04 17:59 | 48.84873 | 8.53778 | 33005 ft | 389 kts | 194° |
| 2026-05-04 18:00 | 48.76951 | 8.51194 | 32980 ft | 392 kts | 193° |
| 2026-05-04 18:00 | 48.71622 | 8.49498 | 32988 ft | 390 kts | 193° |
| 2026-05-04 18:01 | 48.66319 | 8.47790 | 32973 ft | 388 kts | 194° |
| 2026-05-04 18:01 | 48.61014 | 8.46084 | 32975 ft | 391 kts | 194° |
| 2026-05-04 18:02 | 48.53070 | 8.43552 | 32988 ft | 390 kts | 193° |
| 2026-05-04 18:02 | 48.47742 | 8.41852 | 32999 ft | 390 kts | 194° |
| 2026-05-04 18:03 | 48.42428 | 8.40157 | 33000 ft | 390 kts | 193° |
| 2026-05-04 18:03 | 48.37145 | 8.38488 | 33013 ft | 390 kts | 194° |
| 2026-05-04 18:04 | 48.31836 | 8.36811 | 33003 ft | 389 kts | 193° |
| 2026-05-04 18:05 | 48.23885 | 8.34299 | 33002 ft | 388 kts | 193° |
| 2026-05-04 18:05 | 48.18608 | 8.32637 | 33003 ft | 389 kts | 193° |
| 2026-05-04 18:06 | 48.10485 | 8.32207 | 33010 ft | 392 kts | 182° |
| 2026-05-04 18:06 | 48.05026 | 8.32293 | 33021 ft | 391 kts | 182° |
| 2026-05-04 18:07 | 47.99613 | 8.32372 | 33027 ft | 391 kts | 182° |
| 2026-05-04 18:07 | 47.94178 | 8.32455 | 33022 ft | 390 kts | 182° |
| 2026-05-04 18:08 | 47.88743 | 8.32529 | 33015 ft | 390 kts | 182° |
| 2026-05-04 18:08 | 47.83317 | 8.32604 | 33012 ft | 389 kts | 182° |
| 2026-05-04 18:09 | 47.72510 | 8.32776 | 33012 ft | 388 kts | 182° |
| 2026-05-04 18:10 | 47.67135 | 8.32824 | 32995 ft | 387 kts | 182° |
| 2026-05-04 18:10 | 47.61761 | 8.32901 | 32999 ft | 386 kts | 182° |
| 2026-05-04 18:11 | 47.56363 | 8.32976 | 32990 ft | 389 kts | 182° |
| 2026-05-04 18:11 | 47.50975 | 8.33049 | 32999 ft | 390 kts | 182° |
| 2026-05-04 18:12 | 47.45546 | 8.33121 | 32994 ft | 391 kts | 182° |
| 2026-05-04 18:12 | 47.40094 | 8.33195 | 32994 ft | 392 kts | 182° |
| 2026-05-04 18:13 | 47.34623 | 8.33268 | 32989 ft | 393 kts | 182° |
| 2026-05-04 18:14 | 47.26381 | 8.33638 | 33002 ft | 397 kts | 178° |
| 2026-05-04 18:14 | 47.20877 | 8.34466 | 33008 ft | 398 kts | 177° |
| 2026-05-04 18:15 | 47.09847 | 8.36156 | 33013 ft | 399 kts | 178° |
| 2026-05-04 18:16 | 47.04313 | 8.36895 | 33007 ft | 399 kts | 178° |
| 2026-05-04 18:16 | 46.98806 | 8.37624 | 33008 ft | 399 kts | 178° |
| 2026-05-04 18:17 | 46.90501 | 8.38748 | 32996 ft | 398 kts | 178° |
| 2026-05-04 18:18 | 46.82185 | 8.39879 | 32986 ft | 401 kts | 178° |
| 2026-05-04 18:18 | 46.76678 | 8.40644 | 32423 ft | 393 kts | 178° |
| 2026-05-04 18:18 | 46.73964 | 8.41013 | 31973 ft | 389 kts | 178° |
| 2026-05-04 18:19 | 46.68617 | 8.41727 | 31050 ft | 381 kts | 178° |
| 2026-05-04 18:19 | 46.65985 | 8.42072 | 30610 ft | 377 kts | 178° |
| 2026-05-04 18:19 | 46.63420 | 8.42409 | 30180 ft | 370 kts | 178° |
| 2026-05-04 18:20 | 46.60872 | 8.42746 | 29713 ft | 365 kts | 178° |
| 2026-05-04 18:20 | 46.58367 | 8.43082 | 29308 ft | 359 kts | 178° |
| 2026-05-04 18:20 | 46.55888 | 8.43420 | 28912 ft | 353 kts | 178° |
| 2026-05-04 18:20 | 46.53466 | 8.43745 | 28519 ft | 347 kts | 177° |
| 2026-05-04 18:21 | 46.51037 | 8.44069 | 28136 ft | 353 kts | 177° |
| 2026-05-04 18:21 | 46.48585 | 8.44389 | 27757 ft | 353 kts | 178° |
| 2026-05-04 18:21 | 46.46167 | 8.44703 | 27368 ft | 352 kts | 178° |
| 2026-05-04 18:21 | 46.43726 | 8.45028 | 26963 ft | 351 kts | 178° |
| 2026-05-04 18:22 | 46.41303 | 8.45355 | 26574 ft | 349 kts | 177° |
| 2026-05-04 18:22 | 46.38886 | 8.45678 | 26151 ft | 348 kts | 177° |
| 2026-05-04 18:22 | 46.36477 | 8.46003 | 25755 ft | 347 kts | 177° |
| 2026-05-04 18:22 | 46.34076 | 8.46327 | 25342 ft | 345 kts | 177° |
| 2026-05-04 18:23 | 46.31712 | 8.46642 | 24926 ft | 344 kts | 177° |
| 2026-05-04 18:23 | 46.29333 | 8.46958 | 24494 ft | 342 kts | 177° |
| 2026-05-04 18:23 | 46.26964 | 8.47271 | 24035 ft | 341 kts | 177° |
| 2026-05-04 18:23 | 46.24607 | 8.47594 | 23560 ft | 340 kts | 177° |
| 2026-05-04 18:24 | 46.22244 | 8.47930 | 23062 ft | 339 kts | 177° |
| 2026-05-04 18:24 | 46.19898 | 8.48271 | 22590 ft | 337 kts | 177° |
| 2026-05-04 18:24 | 46.17570 | 8.48613 | 22156 ft | 335 kts | 177° |
| 2026-05-04 18:24 | 46.15256 | 8.48950 | 21713 ft | 334 kts | 177° |
| 2026-05-04 18:25 | 46.12977 | 8.49279 | 21279 ft | 333 kts | 177° |
| 2026-05-04 18:25 | 46.10683 | 8.49797 | 20840 ft | 334 kts | 168° |
| 2026-05-04 18:25 | 46.08483 | 8.50900 | 20399 ft | 334 kts | 162° |
| 2026-05-04 18:25 | 46.06306 | 8.52081 | 19973 ft | 333 kts | 162° |
| 2026-05-04 18:26 | 46.04139 | 8.53252 | 19528 ft | 332 kts | 163° |
| 2026-05-04 18:26 | 46.01969 | 8.54423 | 19088 ft | 331 kts | 162° |
| 2026-05-04 18:26 | 45.99840 | 8.55569 | 18672 ft | 330 kts | 163° |
| 2026-05-04 18:26 | 45.97689 | 8.56723 | 18223 ft | 329 kts | 163° |
| 2026-05-04 18:27 | 45.95544 | 8.57871 | 17767 ft | 328 kts | 163° |
| 2026-05-04 18:27 | 45.93411 | 8.59011 | 17350 ft | 326 kts | 163° |
| 2026-05-04 18:27 | 45.91303 | 8.60141 | 17096 ft | 319 kts | 162° |
| 2026-05-04 18:27 | 45.89304 | 8.61540 | 16593 ft | 325 kts | 150° |
| 2026-05-04 18:28 | 45.87502 | 8.63551 | 16194 ft | 327 kts | 144° |
| 2026-05-04 18:28 | 45.85754 | 8.65605 | 15818 ft | 327 kts | 144° |
| 2026-05-04 18:28 | 45.83996 | 8.67655 | 15564 ft | 321 kts | 144° |
| 2026-05-04 18:28 | 45.82273 | 8.69658 | 15287 ft | 316 kts | 145° |
| 2026-05-04 18:29 | 45.80588 | 8.71606 | 14974 ft | 314 kts | 145° |
| 2026-05-04 18:29 | 45.78889 | 8.73565 | 14621 ft | 313 kts | 145° |
| 2026-05-04 18:29 | 45.77186 | 8.75528 | 14237 ft | 313 kts | 145° |
| 2026-05-04 18:29 | 45.75375 | 8.77223 | 13854 ft | 309 kts | 155° |
| 2026-05-04 18:30 | 45.71583 | 8.80139 | 13005 ft | 308 kts | 155° |
| 2026-05-04 18:30 | 45.69722 | 8.81569 | 12579 ft | 299 kts | 155° |
| 2026-05-04 18:30 | 45.67886 | 8.82979 | 12182 ft | 299 kts | 155° |
| 2026-05-04 18:31 | 45.66055 | 8.84388 | 11771 ft | 299 kts | 154° |
| 2026-05-04 18:31 | 45.64227 | 8.85797 | 11376 ft | 298 kts | 154° |
| 2026-05-04 18:31 | 45.62423 | 8.87177 | 10968 ft | 293 kts | 156° |
| 2026-05-04 18:31 | 45.60540 | 8.88048 | 10583 ft | 281 kts | 170° |
| 2026-05-04 18:32 | 45.58625 | 8.88560 | 10202 ft | 279 kts | 170° |
| 2026-05-04 18:32 | 45.56721 | 8.89064 | 9794 ft | 279 kts | 170° |
| 2026-05-04 18:32 | 45.54813 | 8.89574 | 9364 ft | 275 kts | 169° |
| 2026-05-04 18:32 | 45.52958 | 8.90080 | 8937 ft | 269 kts | 169° |
| 2026-05-04 18:33 | 45.51122 | 8.90583 | 8524 ft | 268 kts | 169° |
| 2026-05-04 18:33 | 45.49286 | 8.91085 | 8116 ft | 269 kts | 169° |
| 2026-05-04 18:33 | 45.47446 | 8.91587 | 7710 ft | 269 kts | 169° |
| 2026-05-04 18:33 | 45.45609 | 8.92087 | 7323 ft | 268 kts | 169° |
| 2026-05-04 18:34 | 45.43786 | 8.92584 | 6975 ft | 265 kts | 169° |
| 2026-05-04 18:34 | 45.41992 | 8.93072 | 6693 ft | 260 kts | 169° |
| 2026-05-04 18:34 | 45.40226 | 8.93550 | 6392 ft | 256 kts | 168° |
| 2026-05-04 18:34 | 45.38468 | 8.93832 | 6103 ft | 254 kts | 184° |
| 2026-05-04 18:35 | 45.36819 | 8.93181 | 5858 ft | 249 kts | 208° |
| 2026-05-04 18:35 | 45.35508 | 8.91579 | 5592 ft | 246 kts | 233° |
| 2026-05-04 18:35 | 45.34816 | 8.89404 | 5346 ft | 246 kts | 258° |
| 2026-05-04 18:35 | 45.34837 | 8.86963 | 5142 ft | 248 kts | 283° |
| 2026-05-04 18:36 | 45.35466 | 8.84696 | 4939 ft | 243 kts | 292° |
| 2026-05-04 18:36 | 45.36155 | 8.82530 | 4739 ft | 239 kts | 294° |
| 2026-05-04 18:36 | 45.37159 | 8.80672 | 4530 ft | 238 kts | 321° |
| 2026-05-04 18:36 | 45.38615 | 8.79682 | 4346 ft | 234 kts | 348° |
| 2026-05-04 18:37 | 45.40210 | 8.79354 | 4160 ft | 230 kts | 352° |
| 2026-05-04 18:37 | 45.41780 | 8.79052 | 3974 ft | 225 kts | 351° |
| 2026-05-04 18:37 | 45.42803 | 8.78853 | 3851 ft | 222 kts | 351° |
| 2026-05-04 18:37 | 45.44305 | 8.78534 | 3671 ft | 212 kts | 349° |
| 2026-05-04 18:38 | 45.45727 | 8.78161 | 3493 ft | 205 kts | 348° |
| 2026-05-04 18:38 | 45.47100 | 8.77778 | 3344 ft | 194 kts | 348° |
| 2026-05-04 18:38 | 45.48382 | 8.77419 | 3173 ft | 184 kts | 348° |
| 2026-05-04 18:38 | 45.49620 | 8.77070 | 3043 ft | 178 kts | 347° |
| 2026-05-04 18:39 | 45.50815 | 8.76725 | 2847 ft | 173 kts | 348° |
| 2026-05-04 18:39 | 45.51986 | 8.76396 | 2632 ft | 170 kts | 348° |
| 2026-05-04 18:39 | 45.53133 | 8.76078 | 2410 ft | 165 kts | 348° |
| 2026-05-04 18:39 | 45.54250 | 8.75769 | 2202 ft | 163 kts | 348° |
| 2026-05-04 18:40 | 45.55338 | 8.75469 | 1982 ft | 155 kts | 348° |
| 2026-05-04 18:40 | 45.56369 | 8.75185 | 1784 ft | 145 kts | 348° |
| 2026-05-04 18:40 | 45.57337 | 8.74919 | 1589 ft | 140 kts | 348° |
| 2026-05-04 18:40 | 45.58287 | 8.74656 | 1388 ft | 138 kts | 348° |
| 2026-05-04 18:41 | 45.59227 | 8.74397 | 1217 ft | 138 kts | 348° |
| 2026-05-04 18:41 | 45.60173 | 8.74131 | 1042 ft | 139 kts | 348° |
| 2026-05-04 18:41 | 45.61121 | 8.73874 | 866 ft | 139 kts | 349° |
| 2026-05-04 18:41 | 45.62053 | 8.73616 | 742 ft | 134 kts | 348° |
| 2026-05-04 18:42 | 45.62842 | 8.73399 | 738 ft | 92 kts | 349° |
| 2026-05-04 18:42 | 45.63322 | 8.73267 | 737 ft | 55 kts | 349° |
| 2026-05-04 18:42 | 45.63553 | 8.73197 | 742 ft | 26 kts | 341° |
| 2026-05-04 18:42 | 45.63715 | 8.73072 | 742 ft | 27 kts | 322° |
| 2026-05-04 18:43 | 45.63824 | 8.72894 | 741 ft | 18 kts | 305° |
| 2026-05-04 18:43 | 45.63892 | 8.72753 | 740 ft | 17 kts | 304° |
| 2026-05-04 18:43 | 45.63951 | 8.72618 | 741 ft | 14 kts | 290° |
| 2026-05-04 18:43 | 45.63945 | 8.72475 | 740 ft | 15 kts | 260° |
| 2026-05-04 18:44 | 45.63925 | 8.72326 | 741 ft | 16 kts | 259° |
| 2026-05-04 18:44 | 45.63917 | 8.72221 | 741 ft | 17 kts | 267° |
| 2026-05-04 18:44 | 45.63907 | 8.71975 | 739 ft | 19 kts | 259° |
| 2026-05-04 18:44 | 45.63868 | 8.71847 | 740 ft | 15 kts | 222° |
| 2026-05-04 18:45 | 45.63755 | 8.71837 | 739 ft | 19 kts | 169° |
| 2026-05-04 18:45 | 45.63615 | 8.71875 | 741 ft | 22 kts | 169° |
| 2026-05-04 18:45 | 45.63459 | 8.71918 | 741 ft | 22 kts | 168° |
| 2026-05-04 18:45 | 45.63312 | 8.71959 | 740 ft | 22 kts | 169° |
| 2026-05-04 18:46 | 45.63151 | 8.72003 | 741 ft | 24 kts | 169° |
| 2026-05-04 18:46 | 45.63008 | 8.72042 | 741 ft | 21 kts | 169° |
| 2026-05-04 18:46 | 45.62852 | 8.72085 | 739 ft | 23 kts | 169° |
| 2026-05-04 18:46 | 45.62717 | 8.72123 | 741 ft | 21 kts | 169° |
| 2026-05-04 18:47 | 45.62567 | 8.72164 | 739 ft | 21 kts | 169° |
| 2026-05-04 18:47 | 45.62437 | 8.72200 | 741 ft | 11 kts | 169° |
| 2026-05-04 18:47 | 45.62369 | 8.72149 | 741 ft | 14 kts | 255° |
| 2026-05-04 18:47 | 45.62348 | 8.71994 | 741 ft | 18 kts | 259° |
| 2026-05-04 18:48 | 45.62328 | 8.71845 | 741 ft | 14 kts | 259° |
| 2026-05-04 18:48 | 45.62317 | 8.71762 | 741 ft | 4 kts | 261° |
| 2026-05-04 18:48 | 45.62337 | 8.71731 | 740 ft | 6 kts | 337° |
| 2026-05-04 18:48 | 45.62374 | 8.71721 | 741 ft | 4 kts | 349° |
| 2026-05-04 18:49 | 45.62384 | 8.71718 | 741 ft | 0 kts | 349° |